sensor_id;sensor_type;location;lat;lon;timestamp;temperature;humidity
19435;DHT22;9853;50.848;4.108;2023-04-06T00:09:10;9.70;99.90
19435;DHT22;9853;50.848;4.108;2023-04-06T00:11:11;9.50;99.90
19435;DHT22;9853;50.848;4.108;2023-04-06T00:13:12;9.50;99.90
19435;DHT22;9853;50.848;4.108;2023-04-06T00:15:13;9.50;99.90
19435;DHT22;9853;50.848;4.108;2023-04-06T00:17:14;9.50;99.90
19435;DHT22;9853;50.848;4.108;2023-04-06T00:19:15;9.50;99.90
19435;DHT22;9853;50.848;4.108;2023-04-06T00:21:15;9.50;99.90
19435;DHT22;9853;50.848;4.108;2023-04-06T00:23:16;9.60;99.90
19435;DHT22;9853;50.848;4.108;2023-04-06T00:25:17;9.50;99.90
19435;DHT22;9853;50.848;4.108;2023-04-06T00:27:18;9.40;99.90
19435;DHT22;9853;50.848;4.108;2023-04-06T00:29:19;9.20;99.90
19435;DHT22;9853;50.848;4.108;2023-04-06T00:31:20;9.30;99.90
19435;DHT22;9853;50.848;4.108;2023-04-06T00:33:22;9.20;99.90
19435;DHT22;9853;50.848;4.108;2023-04-06T00:35:23;9.30;99.90
19435;DHT22;9853;50.848;4.108;2023-04-06T00:37:24;9.10;99.90
19435;DHT22;9853;50.848;4.108;2023-04-06T00:39:24;9.30;99.90
19435;DHT22;9853;50.848;4.108;2023-04-06T00:41:25;9.30;99.90
19435;DHT22;9853;50.848;4.108;2023-04-06T00:43:26;9.10;99.90
19435;DHT22;9853;50.848;4.108;2023-04-06T00:45:27;9.20;99.90
19435;DHT22;9853;50.848;4.108;2023-04-06T00:47:28;9.20;99.90
19435;DHT22;9853;50.848;4.108;2023-04-06T00:49:29;9.20;99.90
19435;DHT22;9853;50.848;4.108;2023-04-06T00:51:30;9.00;99.90
19435;DHT22;9853;50.848;4.108;2023-04-06T00:53:31;8.90;99.90
19435;DHT22;9853;50.848;4.108;2023-04-06T00:55:34;9.00;99.90
19435;DHT22;9853;50.848;4.108;2023-04-06T00:57:36;9.10;99.90
19435;DHT22;9853;50.848;4.108;2023-04-06T00:59:38;9.10;99.90
19435;DHT22;9853;50.848;4.108;2023-04-06T01:01:41;9.10;99.90
19435;DHT22;9853;50.848;4.108;2023-04-06T01:03:56;9.10;99.90
19435;DHT22;9853;50.848;4.108;2023-04-06T01:05:58;9.20;99.90
19435;DHT22;9853;50.848;4.108;2023-04-06T01:08:04;9.20;99.90
19435;DHT22;9853;50.848;4.108;2023-04-06T01:10:06;9.20;99.90
19435;DHT22;9853;50.848;4.108;2023-04-06T01:12:09;9.30;99.90
19435;DHT22;9853;50.848;4.108;2023-04-06T01:14:10;9.20;99.90
19435;DHT22;9853;50.848;4.108;2023-04-06T01:16:24;9.00;99.90
19435;DHT22;9853;50.848;4.108;2023-04-06T01:18:51;8.90;99.90
19435;DHT22;9853;50.848;4.108;2023-04-06T01:21:04;8.70;99.90
19435;DHT22;9853;50.848;4.108;2023-04-06T01:23:05;8.50;99.90
19435;DHT22;9853;50.848;4.108;2023-04-06T01:25:07;8.70;99.90
19435;DHT22;9853;50.848;4.108;2023-04-06T01:27:34;8.70;99.90
19435;DHT22;9853;50.848;4.108;2023-04-06T01:29:50;8.60;99.90
19435;DHT22;9853;50.848;4.108;2023-04-06T01:32:05;8.80;99.90
19435;DHT22;9853;50.848;4.108;2023-04-06T01:34:11;8.80;99.90
19435;DHT22;9853;50.848;4.108;2023-04-06T01:36:11;8.80;99.90
19435;DHT22;9853;50.848;4.108;2023-04-06T01:38:13;8.80;99.90
19435;DHT22;9853;50.848;4.108;2023-04-06T01:40:14;8.70;99.90
19435;DHT22;9853;50.848;4.108;2023-04-06T01:42:20;8.70;99.90
19435;DHT22;9853;50.848;4.108;2023-04-06T01:44:22;8.60;99.90
19435;DHT22;9853;50.848;4.108;2023-04-06T01:46:31;8.50;99.90
19435;DHT22;9853;50.848;4.108;2023-04-06T01:48:32;8.50;99.90
19435;DHT22;9853;50.848;4.108;2023-04-06T01:50:36;8.40;99.90
19435;DHT22;9853;50.848;4.108;2023-04-06T01:52:37;8.30;99.90
19435;DHT22;9853;50.848;4.108;2023-04-06T01:54:38;8.30;99.90
19435;DHT22;9853;50.848;4.108;2023-04-06T01:56:49;8.30;99.90
19435;DHT22;9853;50.848;4.108;2023-04-06T01:59:10;8.40;99.90
19435;DHT22;9853;50.848;4.108;2023-04-06T02:01:15;8.40;99.90
19435;DHT22;9853;50.848;4.108;2023-04-06T02:03:27;8.50;99.90
19435;DHT22;9853;50.848;4.108;2023-04-06T02:05:37;8.60;99.90
19435;DHT22;9853;50.848;4.108;2023-04-06T02:08:01;8.70;99.90
19435;DHT22;9853;50.848;4.108;2023-04-06T02:10:12;8.70;99.90
19435;DHT22;9853;50.848;4.108;2023-04-06T02:12:13;8.70;99.90
19435;DHT22;9853;50.848;4.108;2023-04-06T02:14:14;8.70;99.90
19435;DHT22;9853;50.848;4.108;2023-04-06T02:16:20;8.90;99.90
19435;DHT22;9853;50.848;4.108;2023-04-06T02:18:21;8.90;99.90
19435;DHT22;9853;50.848;4.108;2023-04-06T02:20:22;8.80;99.90
19435;DHT22;9853;50.848;4.108;2023-04-06T02:22:24;8.80;99.90
19435;DHT22;9853;50.848;4.108;2023-04-06T02:24:25;8.80;99.90
19435;DHT22;9853;50.848;4.108;2023-04-06T02:26:26;8.80;99.90
19435;DHT22;9853;50.848;4.108;2023-04-06T02:28:27;8.80;99.90
19435;DHT22;9853;50.848;4.108;2023-04-06T02:30:27;8.80;99.90
19435;DHT22;9853;50.848;4.108;2023-04-06T02:32:29;8.80;99.90
19435;DHT22;9853;50.848;4.108;2023-04-06T02:34:31;8.90;99.90
19435;DHT22;9853;50.848;4.108;2023-04-06T02:36:31;9.00;99.90
19435;DHT22;9853;50.848;4.108;2023-04-06T02:38:32;8.90;99.90
19435;DHT22;9853;50.848;4.108;2023-04-06T02:40:35;9.00;99.90
19435;DHT22;9853;50.848;4.108;2023-04-06T02:42:46;9.00;99.90
19435;DHT22;9853;50.848;4.108;2023-04-06T02:44:49;8.90;99.90
19435;DHT22;9853;50.848;4.108;2023-04-06T02:46:51;8.80;99.90
19435;DHT22;9853;50.848;4.108;2023-04-06T02:48:52;8.90;99.90
19435;DHT22;9853;50.848;4.108;2023-04-06T02:50:53;8.80;99.90
19435;DHT22;9853;50.848;4.108;2023-04-06T02:52:54;8.90;99.90
19435;DHT22;9853;50.848;4.108;2023-04-06T02:54:55;8.80;99.90
19435;DHT22;9853;50.848;4.108;2023-04-06T02:57:01;8.80;99.90
19435;DHT22;9853;50.848;4.108;2023-04-06T02:59:11;8.80;99.90
19435;DHT22;9853;50.848;4.108;2023-04-06T03:01:12;8.70;99.90
19435;DHT22;9853;50.848;4.108;2023-04-06T03:03:15;8.80;99.90
19435;DHT22;9853;50.848;4.108;2023-04-06T03:05:17;8.70;99.90
19435;DHT22;9853;50.848;4.108;2023-04-06T03:07:19;8.60;99.90
19435;DHT22;9853;50.848;4.108;2023-04-06T03:09:20;8.60;99.90
19435;DHT22;9853;50.848;4.108;2023-04-06T03:11:22;8.50;99.90
19435;DHT22;9853;50.848;4.108;2023-04-06T03:13:25;8.70;99.90
19435;DHT22;9853;50.848;4.108;2023-04-06T03:15:28;8.80;99.90
19435;DHT22;9853;50.848;4.108;2023-04-06T03:17:39;8.80;99.90
19435;DHT22;9853;50.848;4.108;2023-04-06T03:19:45;8.70;99.90
19435;DHT22;9853;50.848;4.108;2023-04-06T03:21:47;8.80;99.90
19435;DHT22;9853;50.848;4.108;2023-04-06T03:23:50;8.90;99.90
19435;DHT22;9853;50.848;4.108;2023-04-06T03:25:51;8.80;99.90
19435;DHT22;9853;50.848;4.108;2023-04-06T03:27:54;8.90;99.90
19435;DHT22;9853;50.848;4.108;2023-04-06T03:29:55;8.90;99.90
19435;DHT22;9853;50.848;4.108;2023-04-06T03:32:03;8.80;99.90
19435;DHT22;9853;50.848;4.108;2023-04-06T03:34:12;8.80;99.90
19435;DHT22;9853;50.848;4.108;2023-04-06T03:36:12;8.80;99.90
19435;DHT22;9853;50.848;4.108;2023-04-06T03:38:16;8.80;99.90
19435;DHT22;9853;50.848;4.108;2023-04-06T03:40:17;8.80;99.90
19435;DHT22;9853;50.848;4.108;2023-04-06T03:42:18;8.70;99.90
19435;DHT22;9853;50.848;4.108;2023-04-06T03:44:25;8.70;99.90
19435;DHT22;9853;50.848;4.108;2023-04-06T03:46:26;8.70;99.90
19435;DHT22;9853;50.848;4.108;2023-04-06T03:48:29;8.70;99.90
19435;DHT22;9853;50.848;4.108;2023-04-06T03:50:34;8.70;99.90
19435;DHT22;9853;50.848;4.108;2023-04-06T03:52:35;8.80;99.90
19435;DHT22;9853;50.848;4.108;2023-04-06T03:54:37;8.80;99.90
19435;DHT22;9853;50.848;4.108;2023-04-06T03:56:37;8.80;99.90
19435;DHT22;9853;50.848;4.108;2023-04-06T03:58:38;8.90;99.90
19435;DHT22;9853;50.848;4.108;2023-04-06T04:00:39;9.00;99.90
19435;DHT22;9853;50.848;4.108;2023-04-06T04:02:41;8.90;99.90
19435;DHT22;9853;50.848;4.108;2023-04-06T04:04:42;8.90;99.90
19435;DHT22;9853;50.848;4.108;2023-04-06T04:06:42;9.00;99.90
19435;DHT22;9853;50.848;4.108;2023-04-06T04:08:43;9.00;99.90
19435;DHT22;9853;50.848;4.108;2023-04-06T04:10:44;9.10;99.90
19435;DHT22;9853;50.848;4.108;2023-04-06T04:12:45;9.30;99.90
19435;DHT22;9853;50.848;4.108;2023-04-06T04:14:46;9.30;99.90
19435;DHT22;9853;50.848;4.108;2023-04-06T04:16:46;9.10;99.90
19435;DHT22;9853;50.848;4.108;2023-04-06T04:18:47;9.10;99.90
19435;DHT22;9853;50.848;4.108;2023-04-06T04:20:49;9.00;99.90
19435;DHT22;9853;50.848;4.108;2023-04-06T04:22:50;9.10;99.90
19435;DHT22;9853;50.848;4.108;2023-04-06T04:24:51;9.10;99.90
19435;DHT22;9853;50.848;4.108;2023-04-06T04:26:52;9.00;99.90
19435;DHT22;9853;50.848;4.108;2023-04-06T04:28:54;9.00;99.90
19435;DHT22;9853;50.848;4.108;2023-04-06T04:30:54;9.10;99.90
19435;DHT22;9853;50.848;4.108;2023-04-06T04:32:56;9.20;99.90
19435;DHT22;9853;50.848;4.108;2023-04-06T04:34:58;9.30;99.90
19435;DHT22;9853;50.848;4.108;2023-04-06T04:37:08;9.30;99.90
19435;DHT22;9853;50.848;4.108;2023-04-06T04:39:20;9.20;99.90
19435;DHT22;9853;50.848;4.108;2023-04-06T04:41:29;9.20;99.90
19435;DHT22;9853;50.848;4.108;2023-04-06T04:43:31;9.30;99.90
19435;DHT22;9853;50.848;4.108;2023-04-06T04:45:32;9.30;99.90
19435;DHT22;9853;50.848;4.108;2023-04-06T04:47:39;9.30;99.90
19435;DHT22;9853;50.848;4.108;2023-04-06T04:49:41;9.10;99.90
19435;DHT22;9853;50.848;4.108;2023-04-06T04:51:42;9.00;99.90
19435;DHT22;9853;50.848;4.108;2023-04-06T04:53:50;9.10;99.90
19435;DHT22;9853;50.848;4.108;2023-04-06T04:55:56;9.10;99.90
19435;DHT22;9853;50.848;4.108;2023-04-06T04:57:57;9.20;99.90
19435;DHT22;9853;50.848;4.108;2023-04-06T05:00:16;9.20;99.90
19435;DHT22;9853;50.848;4.108;2023-04-06T05:02:19;9.20;99.90
19435;DHT22;9853;50.848;4.108;2023-04-06T05:04:31;9.30;99.90
19435;DHT22;9853;50.848;4.108;2023-04-06T05:06:35;9.30;99.90
19435;DHT22;9853;50.848;4.108;2023-04-06T05:08:36;9.30;99.90
19435;DHT22;9853;50.848;4.108;2023-04-06T05:10:36;9.40;99.90
19435;DHT22;9853;50.848;4.108;2023-04-06T05:12:38;9.40;99.90
19435;DHT22;9853;50.848;4.108;2023-04-06T05:14:41;9.30;99.90
19435;DHT22;9853;50.848;4.108;2023-04-06T05:16:47;9.40;99.90
19435;DHT22;9853;50.848;4.108;2023-04-06T05:18:48;9.40;99.90
19435;DHT22;9853;50.848;4.108;2023-04-06T05:20:50;9.30;99.90
19435;DHT22;9853;50.848;4.108;2023-04-06T05:22:55;9.30;99.90
19435;DHT22;9853;50.848;4.108;2023-04-06T05:24:57;9.40;99.90
19435;DHT22;9853;50.848;4.108;2023-04-06T05:26:57;9.30;99.90
19435;DHT22;9853;50.848;4.108;2023-04-06T05:28:59;9.40;99.90
19435;DHT22;9853;50.848;4.108;2023-04-06T08:45:20;9.60;99.90
19435;DHT22;9853;50.848;4.108;2023-04-06T08:47:22;9.60;99.90
19435;DHT22;9853;50.848;4.108;2023-04-06T08:49:23;9.40;99.90
19435;DHT22;9853;50.848;4.108;2023-04-06T08:51:25;9.40;99.90
19435;DHT22;9853;50.848;4.108;2023-04-06T08:53:28;9.50;99.90
19435;DHT22;9853;50.848;4.108;2023-04-06T08:55:29;9.60;99.90
19435;DHT22;9853;50.848;4.108;2023-04-06T08:57:31;9.50;99.90
19435;DHT22;9853;50.848;4.108;2023-04-06T08:59:33;9.40;99.90
19435;DHT22;9853;50.848;4.108;2023-04-06T09:01:38;9.50;99.90
19435;DHT22;9853;50.848;4.108;2023-04-06T09:03:40;9.60;99.90
19435;DHT22;9853;50.848;4.108;2023-04-06T09:05:41;9.60;99.90
19435;DHT22;9853;50.848;4.108;2023-04-06T09:07:43;9.60;99.90
19435;DHT22;9853;50.848;4.108;2023-04-06T09:09:45;9.80;99.90
19435;DHT22;9853;50.848;4.108;2023-04-06T09:11:49;10.00;99.90
19435;DHT22;9853;50.848;4.108;2023-04-06T09:13:53;9.90;99.90
19435;DHT22;9853;50.848;4.108;2023-04-06T09:16:04;9.90;99.90
19435;DHT22;9853;50.848;4.108;2023-04-06T09:18:06;9.90;99.90
19435;DHT22;9853;50.848;4.108;2023-04-06T09:20:08;10.10;99.90
19435;DHT22;9853;50.848;4.108;2023-04-06T09:22:09;9.90;99.90
19435;DHT22;9853;50.848;4.108;2023-04-06T09:24:10;9.70;99.90
19435;DHT22;9853;50.848;4.108;2023-04-06T09:26:16;9.50;99.90
19435;DHT22;9853;50.848;4.108;2023-04-06T09:28:16;9.70;99.90
19435;DHT22;9853;50.848;4.108;2023-04-06T09:30:17;9.70;99.90
19435;DHT22;9853;50.848;4.108;2023-04-06T09:32:18;9.70;99.90
19435;DHT22;9853;50.848;4.108;2023-04-06T09:34:22;9.70;99.90
19435;DHT22;9853;50.848;4.108;2023-04-06T09:36:35;9.60;99.90
19435;DHT22;9853;50.848;4.108;2023-04-06T09:38:54;9.70;99.90
19435;DHT22;9853;50.848;4.108;2023-04-06T09:40:55;9.50;99.90
19435;DHT22;9853;50.848;4.108;2023-04-06T09:42:56;9.60;99.90
19435;DHT22;9853;50.848;4.108;2023-04-06T09:44:59;9.60;99.90
19435;DHT22;9853;50.848;4.108;2023-04-06T09:47:00;9.60;99.90
19435;DHT22;9853;50.848;4.108;2023-04-06T09:49:04;9.60;99.90
19435;DHT22;9853;50.848;4.108;2023-04-06T09:51:06;9.70;99.90
19435;DHT22;9853;50.848;4.108;2023-04-06T09:53:07;9.70;99.90
19435;DHT22;9853;50.848;4.108;2023-04-06T09:55:09;9.80;99.90
19435;DHT22;9853;50.848;4.108;2023-04-06T09:57:25;9.80;99.90
19435;DHT22;9853;50.848;4.108;2023-04-06T10:01:50;9.70;99.90
19435;DHT22;9853;50.848;4.108;2023-04-06T10:04:13;9.80;99.90
19435;DHT22;9853;50.848;4.108;2023-04-06T10:06:22;9.90;99.90
19435;DHT22;9853;50.848;4.108;2023-04-06T10:08:24;10.00;99.90
19435;DHT22;9853;50.848;4.108;2023-04-06T10:10:29;10.10;99.90
19435;DHT22;9853;50.848;4.108;2023-04-06T10:12:30;10.10;99.90
19435;DHT22;9853;50.848;4.108;2023-04-06T10:14:33;10.20;99.90
19435;DHT22;9853;50.848;4.108;2023-04-06T10:16:37;10.20;99.90
19435;DHT22;9853;50.848;4.108;2023-04-06T10:18:39;10.20;99.90
19435;DHT22;9853;50.848;4.108;2023-04-06T10:20:51;10.20;99.90
19435;DHT22;9853;50.848;4.108;2023-04-06T10:23:19;10.50;99.90
19435;DHT22;9853;50.848;4.108;2023-04-06T10:25:31;10.40;99.90
19435;DHT22;9853;50.848;4.108;2023-04-06T10:27:34;10.10;99.90
19435;DHT22;9853;50.848;4.108;2023-04-06T10:29:45;10.00;99.90
19435;DHT22;9853;50.848;4.108;2023-04-06T10:31:48;9.90;99.90
19435;DHT22;9853;50.848;4.108;2023-04-06T10:33:59;9.90;99.90
19435;DHT22;9853;50.848;4.108;2023-04-06T10:36:14;9.90;99.90
19435;DHT22;9853;50.848;4.108;2023-04-06T10:38:15;10.00;99.90
19435;DHT22;9853;50.848;4.108;2023-04-06T10:40:25;10.20;99.90
19435;DHT22;9853;50.848;4.108;2023-04-06T10:42:37;10.20;99.90
19435;DHT22;9853;50.848;4.108;2023-04-06T10:44:42;10.10;99.90
19435;DHT22;9853;50.848;4.108;2023-04-06T10:46:55;10.30;99.90
19435;DHT22;9853;50.848;4.108;2023-04-06T10:48:57;10.30;99.90
19435;DHT22;9853;50.848;4.108;2023-04-06T10:50:58;10.30;99.90
19435;DHT22;9853;50.848;4.108;2023-04-06T10:53:00;10.30;99.90
19435;DHT22;9853;50.848;4.108;2023-04-06T10:55:01;10.10;99.90
19435;DHT22;9853;50.848;4.108;2023-04-06T10:57:02;10.10;99.90
19435;DHT22;9853;50.848;4.108;2023-04-06T10:59:03;10.10;99.90
19435;DHT22;9853;50.848;4.108;2023-04-06T11:01:04;10.20;99.90
19435;DHT22;9853;50.848;4.108;2023-04-06T11:03:05;10.30;99.90
19435;DHT22;9853;50.848;4.108;2023-04-06T11:05:06;10.40;99.90
19435;DHT22;9853;50.848;4.108;2023-04-06T11:07:07;10.40;99.90
19435;DHT22;9853;50.848;4.108;2023-04-06T11:09:08;10.50;99.90
19435;DHT22;9853;50.848;4.108;2023-04-06T11:11:13;10.50;99.90
19435;DHT22;9853;50.848;4.108;2023-04-06T11:13:19;10.30;99.90
19435;DHT22;9853;50.848;4.108;2023-04-06T11:15:20;10.30;99.90
19435;DHT22;9853;50.848;4.108;2023-04-06T11:17:28;10.20;99.90
19435;DHT22;9853;50.848;4.108;2023-04-06T11:19:29;10.20;99.90
19435;DHT22;9853;50.848;4.108;2023-04-06T11:21:40;10.10;99.90
19435;DHT22;9853;50.848;4.108;2023-04-06T11:23:42;9.90;99.90
19435;DHT22;9853;50.848;4.108;2023-04-06T11:25:52;9.80;99.90
19435;DHT22;9853;50.848;4.108;2023-04-06T11:27:53;9.90;99.90
19435;DHT22;9853;50.848;4.108;2023-04-06T11:29:54;10.10;99.90
19435;DHT22;9853;50.848;4.108;2023-04-06T11:32:21;10.40;99.90
19435;DHT22;9853;50.848;4.108;2023-04-06T11:34:24;10.30;99.90
19435;DHT22;9853;50.848;4.108;2023-04-06T11:36:30;10.40;99.90
19435;DHT22;9853;50.848;4.108;2023-04-06T11:38:34;10.60;99.90
19435;DHT22;9853;50.848;4.108;2023-04-06T11:40:39;10.50;99.90
19435;DHT22;9853;50.848;4.108;2023-04-06T11:42:39;10.20;99.90
19435;DHT22;9853;50.848;4.108;2023-04-06T11:44:43;10.20;99.90
19435;DHT22;9853;50.848;4.108;2023-04-06T11:46:53;10.30;99.90
19435;DHT22;9853;50.848;4.108;2023-04-06T11:48:58;10.50;99.90
19435;DHT22;9853;50.848;4.108;2023-04-06T11:51:01;10.50;99.90
19435;DHT22;9853;50.848;4.108;2023-04-06T11:53:02;10.40;99.90
19435;DHT22;9853;50.848;4.108;2023-04-06T11:55:14;10.40;99.90
19435;DHT22;9853;50.848;4.108;2023-04-06T11:57:16;10.30;99.90
19435;DHT22;9853;50.848;4.108;2023-04-06T11:59:17;10.40;99.90
19435;DHT22;9853;50.848;4.108;2023-04-06T12:01:18;10.40;99.90
19435;DHT22;9853;50.848;4.108;2023-04-06T12:03:19;10.40;99.90
19435;DHT22;9853;50.848;4.108;2023-04-06T12:05:20;10.10;99.90
19435;DHT22;9853;50.848;4.108;2023-04-06T12:07:22;10.10;99.90
19435;DHT22;9853;50.848;4.108;2023-04-06T12:09:23;10.10;99.90
19435;DHT22;9853;50.848;4.108;2023-04-06T12:11:24;10.00;99.90
19435;DHT22;9853;50.848;4.108;2023-04-06T12:13:24;10.10;99.90
19435;DHT22;9853;50.848;4.108;2023-04-06T12:15:28;10.20;99.90
19435;DHT22;9853;50.848;4.108;2023-04-06T12:17:28;10.30;99.90
19435;DHT22;9853;50.848;4.108;2023-04-06T12:19:29;10.50;99.90
19435;DHT22;9853;50.848;4.108;2023-04-06T12:21:31;10.40;99.90
19435;DHT22;9853;50.848;4.108;2023-04-06T12:23:32;10.30;99.90
19435;DHT22;9853;50.848;4.108;2023-04-06T12:25:33;10.10;99.90
19435;DHT22;9853;50.848;4.108;2023-04-06T12:27:34;10.20;99.90
19435;DHT22;9853;50.848;4.108;2023-04-06T12:29:35;10.10;99.90
19435;DHT22;9853;50.848;4.108;2023-04-06T12:31:36;10.10;99.90
19435;DHT22;9853;50.848;4.108;2023-04-06T12:33:40;10.10;99.90
19435;DHT22;9853;50.848;4.108;2023-04-06T12:35:41;10.00;99.90
19435;DHT22;9853;50.848;4.108;2023-04-06T12:37:42;10.10;99.90
19435;DHT22;9853;50.848;4.108;2023-04-06T12:39:43;10.10;99.90
19435;DHT22;9853;50.848;4.108;2023-04-06T12:41:45;10.00;99.90
19435;DHT22;9853;50.848;4.108;2023-04-06T12:43:46;10.00;99.90
19435;DHT22;9853;50.848;4.108;2023-04-06T12:45:46;10.00;99.90
19435;DHT22;9853;50.848;4.108;2023-04-06T12:47:47;10.10;99.90
19435;DHT22;9853;50.848;4.108;2023-04-06T12:49:48;10.00;99.90
19435;DHT22;9853;50.848;4.108;2023-04-06T12:51:49;9.90;99.90
19435;DHT22;9853;50.848;4.108;2023-04-06T12:53:50;10.00;99.90
19435;DHT22;9853;50.848;4.108;2023-04-06T12:55:53;10.10;99.90
19435;DHT22;9853;50.848;4.108;2023-04-06T12:57:54;10.30;99.90
19435;DHT22;9853;50.848;4.108;2023-04-06T12:59:55;10.40;99.90
19435;DHT22;9853;50.848;4.108;2023-04-06T13:01:57;10.30;99.90
19435;DHT22;9853;50.848;4.108;2023-04-06T13:03:57;10.20;99.90
19435;DHT22;9853;50.848;4.108;2023-04-06T13:06:00;10.30;99.90
19435;DHT22;9853;50.848;4.108;2023-04-06T13:08:01;10.30;99.90
19435;DHT22;9853;50.848;4.108;2023-04-06T13:10:02;10.20;99.90
19435;DHT22;9853;50.848;4.108;2023-04-06T13:12:03;10.20;99.90
19435;DHT22;9853;50.848;4.108;2023-04-06T13:14:04;10.30;99.90
19435;DHT22;9853;50.848;4.108;2023-04-06T13:16:08;10.30;99.90
19435;DHT22;9853;50.848;4.108;2023-04-06T13:18:09;10.40;99.90
19435;DHT22;9853;50.848;4.108;2023-04-06T13:20:10;10.50;99.90
19435;DHT22;9853;50.848;4.108;2023-04-06T13:22:11;10.50;99.90
19435;DHT22;9853;50.848;4.108;2023-04-06T13:24:13;10.40;99.90
19435;DHT22;9853;50.848;4.108;2023-04-06T13:26:14;10.40;99.90
19435;DHT22;9853;50.848;4.108;2023-04-06T13:28:17;10.30;99.90
19435;DHT22;9853;50.848;4.108;2023-04-06T13:30:17;10.20;99.90
19435;DHT22;9853;50.848;4.108;2023-04-06T13:32:18;10.10;99.90
19435;DHT22;9853;50.848;4.108;2023-04-06T13:34:19;10.30;99.90
19435;DHT22;9853;50.848;4.108;2023-04-06T13:36:20;10.20;99.90
19435;DHT22;9853;50.848;4.108;2023-04-06T13:38:21;10.30;99.90
19435;DHT22;9853;50.848;4.108;2023-04-06T13:40:22;10.50;99.90
19435;DHT22;9853;50.848;4.108;2023-04-06T13:42:22;10.80;99.90
19435;DHT22;9853;50.848;4.108;2023-04-06T13:44:23;10.70;99.90
19435;DHT22;9853;50.848;4.108;2023-04-06T13:46:24;10.60;99.90
19435;DHT22;9853;50.848;4.108;2023-04-06T13:48:27;10.60;99.90
19435;DHT22;9853;50.848;4.108;2023-04-06T13:50:28;10.60;99.90
19435;DHT22;9853;50.848;4.108;2023-04-06T13:52:28;10.50;99.90
19435;DHT22;9853;50.848;4.108;2023-04-06T13:54:29;10.50;99.90
19435;DHT22;9853;50.848;4.108;2023-04-06T13:56:30;10.60;99.90
19435;DHT22;9853;50.848;4.108;2023-04-06T13:58:31;10.70;99.90
19435;DHT22;9853;50.848;4.108;2023-04-06T14:00:31;10.80;99.90
19435;DHT22;9853;50.848;4.108;2023-04-06T14:02:32;10.90;99.90
19435;DHT22;9853;50.848;4.108;2023-04-06T14:04:33;11.00;99.90
19435;DHT22;9853;50.848;4.108;2023-04-06T14:06:34;10.80;99.90
19435;DHT22;9853;50.848;4.108;2023-04-06T14:08:35;10.70;99.90
19435;DHT22;9853;50.848;4.108;2023-04-06T14:10:39;10.60;99.90
19435;DHT22;9853;50.848;4.108;2023-04-06T14:12:44;10.50;99.90
19435;DHT22;9853;50.848;4.108;2023-04-06T14:14:45;10.50;99.90
19435;DHT22;9853;50.848;4.108;2023-04-06T14:16:45;10.80;99.90
19435;DHT22;9853;50.848;4.108;2023-04-06T14:18:46;10.60;99.90
19435;DHT22;9853;50.848;4.108;2023-04-06T14:20:54;10.70;99.90
19435;DHT22;9853;50.848;4.108;2023-04-06T14:22:55;10.80;99.90
19435;DHT22;9853;50.848;4.108;2023-04-06T14:24:56;10.90;99.90
19435;DHT22;9853;50.848;4.108;2023-04-06T14:29:22;10.90;99.90
19435;DHT22;9853;50.848;4.108;2023-04-06T14:31:23;11.10;99.90
19435;DHT22;9853;50.848;4.108;2023-04-06T14:33:24;11.10;99.90
19435;DHT22;9853;50.848;4.108;2023-04-06T14:35:25;11.30;99.90
19435;DHT22;9853;50.848;4.108;2023-04-06T14:37:28;11.20;99.90
19435;DHT22;9853;50.848;4.108;2023-04-06T14:39:29;11.40;99.90
19435;DHT22;9853;50.848;4.108;2023-04-06T14:41:29;11.50;99.90
19435;DHT22;9853;50.848;4.108;2023-04-06T14:43:31;11.50;99.90
19435;DHT22;9853;50.848;4.108;2023-04-06T15:42:36;12.60;99.90
19435;DHT22;9853;50.848;4.108;2023-04-06T15:44:37;12.60;99.90
19435;DHT22;9853;50.848;4.108;2023-04-06T15:46:38;12.50;99.90
19435;DHT22;9853;50.848;4.108;2023-04-06T15:48:40;12.40;99.90
19435;DHT22;9853;50.848;4.108;2023-04-06T15:50:42;12.20;99.90
19435;DHT22;9853;50.848;4.108;2023-04-06T15:52:43;12.10;99.90
19435;DHT22;9853;50.848;4.108;2023-04-06T15:54:44;12.00;99.90
19435;DHT22;9853;50.848;4.108;2023-04-06T15:56:45;12.00;99.90
19435;DHT22;9853;50.848;4.108;2023-04-06T15:58:47;12.00;99.90
19435;DHT22;9853;50.848;4.108;2023-04-06T16:00:48;12.20;99.90
19435;DHT22;9853;50.848;4.108;2023-04-06T16:02:49;12.20;99.90
19435;DHT22;9853;50.848;4.108;2023-04-06T16:04:54;12.30;99.90
19435;DHT22;9853;50.848;4.108;2023-04-06T16:06:55;12.40;99.90
19435;DHT22;9853;50.848;4.108;2023-04-06T16:37:53;13.30;99.90
19435;DHT22;9853;50.848;4.108;2023-04-06T16:40:43;13.00;99.90
19435;DHT22;9853;50.848;4.108;2023-04-06T16:49:11;13.00;99.90
19435;DHT22;9853;50.848;4.108;2023-04-06T16:51:39;12.80;99.90
19435;DHT22;9853;50.848;4.108;2023-04-06T17:05:10;12.90;99.90
19435;DHT22;9853;50.848;4.108;2023-04-06T17:22:09;12.50;99.90
19435;DHT22;9853;50.848;4.108;2023-04-06T17:28:48;12.60;99.90
19435;DHT22;9853;50.848;4.108;2023-04-06T17:48:20;12.60;99.90
19435;DHT22;9853;50.848;4.108;2023-04-06T17:50:21;12.60;99.90
19435;DHT22;9853;50.848;4.108;2023-04-06T17:52:47;12.40;99.90
19435;DHT22;9853;50.848;4.108;2023-04-06T18:04:59;12.10;99.90
19435;DHT22;9853;50.848;4.108;2023-04-06T18:07:13;11.90;99.90
19435;DHT22;9853;50.848;4.108;2023-04-06T18:09:18;12.10;99.90
19435;DHT22;9853;50.848;4.108;2023-04-06T18:11:22;12.00;99.90
19435;DHT22;9853;50.848;4.108;2023-04-06T18:14:21;12.10;99.90
19435;DHT22;9853;50.848;4.108;2023-04-06T18:16:22;12.00;99.90
19435;DHT22;9853;50.848;4.108;2023-04-06T18:19:01;12.00;99.90
19435;DHT22;9853;50.848;4.108;2023-04-06T18:21:07;11.90;99.90
19435;DHT22;9853;50.848;4.108;2023-04-06T18:23:33;11.80;99.90
19435;DHT22;9853;50.848;4.108;2023-04-06T18:29:16;11.70;99.90
19435;DHT22;9853;50.848;4.108;2023-04-06T18:31:40;11.70;99.90
19435;DHT22;9853;50.848;4.108;2023-04-06T18:37:49;11.70;99.90
19435;DHT22;9853;50.848;4.108;2023-04-06T18:40:39;11.70;99.90
19435;DHT22;9853;50.848;4.108;2023-04-06T18:42:56;11.80;99.90
19435;DHT22;9853;50.848;4.108;2023-04-06T18:50:59;12.10;99.90
19435;DHT22;9853;50.848;4.108;2023-04-06T18:53:05;11.80;99.90
19435;DHT22;9853;50.848;4.108;2023-04-06T19:01:18;11.90;99.90
19435;DHT22;9853;50.848;4.108;2023-04-06T19:03:34;11.90;99.90
19435;DHT22;9853;50.848;4.108;2023-04-06T19:05:50;11.90;99.90
19435;DHT22;9853;50.848;4.108;2023-04-06T19:07:53;11.80;99.90
19435;DHT22;9853;50.848;4.108;2023-04-06T19:12:45;11.90;99.90
19435;DHT22;9853;50.848;4.108;2023-04-06T19:15:15;11.80;99.90
19435;DHT22;9853;50.848;4.108;2023-04-06T19:17:21;12.10;99.90
